sensor_id;sensor_type;location;lat;lon;timestamp;pressure;altitude;pressure_sealevel;temperature;humidity
13013;BME280;22580;57.670;12.006;2023-02-10T00:02:15;101701.22;;;10.25;60.14
13013;BME280;22580;57.670;12.006;2023-02-10T00:04:42;101715.50;;;10.24;60.33
13013;BME280;22580;57.670;12.006;2023-02-10T00:07:09;101659.09;;;9.47;60.70
13013;BME280;22580;57.670;12.006;2023-02-10T00:09:35;101735.91;;;9.92;59.55
13013;BME280;22580;57.670;12.006;2023-02-10T00:12:04;101702.78;;;10.12;59.75
13013;BME280;22580;57.670;12.006;2023-02-10T00:14:33;101741.13;;;10.44;58.60
13013;BME280;22580;57.670;12.006;2023-02-10T00:17:00;101639.53;;;9.46;59.15
13013;BME280;22580;57.670;12.006;2023-02-10T00:19:28;101742.94;;;10.28;58.96
13013;BME280;22580;57.670;12.006;2023-02-10T00:21:56;101762.34;;;10.31;59.84
13013;BME280;22580;57.670;12.006;2023-02-10T00:24:24;101751.50;;;10.17;61.21
13013;BME280;22580;57.670;12.006;2023-02-10T00:26:51;101745.78;;;10.40;61.53
13013;BME280;22580;57.670;12.006;2023-02-10T00:29:19;101721.25;;;10.16;63.19
13013;BME280;22580;57.670;12.006;2023-02-10T00:31:46;101714.09;;;10.17;63.01
13013;BME280;22580;57.670;12.006;2023-02-10T00:34:14;101721.34;;;9.98;64.67
13013;BME280;22580;57.670;12.006;2023-02-10T00:36:42;101746.22;;;10.15;64.44
13013;BME280;22580;57.670;12.006;2023-02-10T00:39:12;101683.19;;;10.44;63.15
13013;BME280;22580;57.670;12.006;2023-02-10T00:41:40;101728.91;;;10.40;63.77
13013;BME280;22580;57.670;12.006;2023-02-10T00:44:07;101768.22;;;10.54;65.35
13013;BME280;22580;57.670;12.006;2023-02-10T00:46:36;101771.72;;;10.71;65.08
13013;BME280;22580;57.670;12.006;2023-02-10T00:49:02;101762.56;;;10.91;63.95
13013;BME280;22580;57.670;12.006;2023-02-10T00:51:29;101758.88;;;10.12;66.46
13013;BME280;22580;57.670;12.006;2023-02-10T00:53:57;101801.47;;;10.15;67.70
13013;BME280;22580;57.670;12.006;2023-02-10T00:56:24;101793.47;;;10.32;67.13
13013;BME280;22580;57.670;12.006;2023-02-10T00:58:51;101806.28;;;10.59;67.13
13013;BME280;22580;57.670;12.006;2023-02-10T01:01:18;101779.47;;;10.10;68.72
13013;BME280;22580;57.670;12.006;2023-02-10T01:03:47;101827.03;;;10.21;70.03
13013;BME280;22580;57.670;12.006;2023-02-10T01:06:14;101801.38;;;10.67;69.51
13013;BME280;22580;57.670;12.006;2023-02-10T01:08:41;101809.75;;;10.28;68.76
13013;BME280;22580;57.670;12.006;2023-02-10T01:11:10;101804.00;;;9.83;70.93
13013;BME280;22580;57.670;12.006;2023-02-10T01:13:38;101795.50;;;10.10;70.44
13013;BME280;22580;57.670;12.006;2023-02-10T01:16:06;101810.28;;;10.17;70.08
13013;BME280;22580;57.670;12.006;2023-02-10T01:18:35;101756.16;;;9.79;69.67
13013;BME280;22580;57.670;12.006;2023-02-10T01:21:07;101815.69;;;10.15;70.20
13013;BME280;22580;57.670;12.006;2023-02-10T01:23:34;101734.50;;;9.68;69.80
13013;BME280;22580;57.670;12.006;2023-02-10T01:26:02;101821.84;;;10.35;68.46
13013;BME280;22580;57.670;12.006;2023-02-10T01:28:29;101830.19;;;10.29;66.84
13013;BME280;22580;57.670;12.006;2023-02-10T01:30:56;101801.81;;;10.26;65.28
13013;BME280;22580;57.670;12.006;2023-02-10T01:33:22;101808.00;;;10.60;63.95
13013;BME280;22580;57.670;12.006;2023-02-10T01:35:49;101841.81;;;10.61;62.72
13013;BME280;22580;57.670;12.006;2023-02-10T01:38:18;101760.38;;;8.95;65.85
13013;BME280;22580;57.670;12.006;2023-02-10T01:40:47;101805.34;;;10.27;63.32
13013;BME280;22580;57.670;12.006;2023-02-10T01:43:20;101851.88;;;10.56;62.53
13013;BME280;22580;57.670;12.006;2023-02-10T01:45:47;101819.09;;;10.52;61.76
13013;BME280;22580;57.670;12.006;2023-02-10T01:48:14;101863.72;;;10.00;62.77
13013;BME280;22580;57.670;12.006;2023-02-10T01:50:45;101866.53;;;9.97;63.73
13013;BME280;22580;57.670;12.006;2023-02-10T01:53:15;101830.06;;;9.78;63.00
13013;BME280;22580;57.670;12.006;2023-02-10T01:55:46;101881.66;;;10.32;62.82
13013;BME280;22580;57.670;12.006;2023-02-10T01:58:21;101887.03;;;10.65;61.40
13013;BME280;22580;57.670;12.006;2023-02-10T02:00:51;101889.94;;;10.94;60.48
13013;BME280;22580;57.670;12.006;2023-02-10T02:03:18;101897.41;;;10.54;60.48
13013;BME280;22580;57.670;12.006;2023-02-10T02:05:45;101909.25;;;10.33;60.89
13013;BME280;22580;57.670;12.006;2023-02-10T02:08:16;101859.50;;;10.30;60.83
13013;BME280;22580;57.670;12.006;2023-02-10T02:11:05;101798.50;;;9.69;61.81
13013;BME280;22580;57.670;12.006;2023-02-10T02:13:45;101894.13;;;10.49;61.49
13013;BME280;22580;57.670;12.006;2023-02-10T02:16:26;101827.44;;;10.46;60.47
13013;BME280;22580;57.670;12.006;2023-02-10T02:18:59;101894.19;;;10.47;60.56
13013;BME280;22580;57.670;12.006;2023-02-10T02:21:46;101847.22;;;10.09;61.60
13013;BME280;22580;57.670;12.006;2023-02-10T02:24:29;101872.03;;;10.11;61.84
13013;BME280;22580;57.670;12.006;2023-02-10T02:27:14;101892.28;;;9.80;62.92
13013;BME280;22580;57.670;12.006;2023-02-10T02:32:47;101837.16;;;10.14;60.91
13013;BME280;22580;57.670;12.006;2023-02-10T02:35:20;101907.22;;;10.21;60.77
13013;BME280;22580;57.670;12.006;2023-02-10T02:37:50;101904.94;;;10.30;59.75
13013;BME280;22580;57.670;12.006;2023-02-10T02:40:22;101919.38;;;10.43;59.38
13013;BME280;22580;57.670;12.006;2023-02-10T02:42:50;101900.00;;;10.73;58.51
13013;BME280;22580;57.670;12.006;2023-02-10T02:45:21;101826.00;;;10.06;58.43
13013;BME280;22580;57.670;12.006;2023-02-10T02:50:50;101926.59;;;10.41;59.09
13013;BME280;22580;57.670;12.006;2023-02-10T02:53:25;101839.16;;;10.28;58.65
13013;BME280;22580;57.670;12.006;2023-02-10T02:56:03;101879.47;;;10.23;58.45
13013;BME280;22580;57.670;12.006;2023-02-10T02:58:39;101920.28;;;10.60;57.70
13013;BME280;22580;57.670;12.006;2023-02-10T03:01:13;101920.69;;;10.52;58.58
13013;BME280;22580;57.670;12.006;2023-02-10T03:03:42;101932.56;;;10.46;58.52
13013;BME280;22580;57.670;12.006;2023-02-10T03:06:10;101827.66;;;9.91;59.05
13013;BME280;22580;57.670;12.006;2023-02-10T03:08:39;101903.38;;;9.90;60.25
13013;BME280;22580;57.670;12.006;2023-02-10T03:11:08;101931.13;;;10.05;61.17
13013;BME280;22580;57.670;12.006;2023-02-10T03:13:38;101933.44;;;9.58;62.69
13013;BME280;22580;57.670;12.006;2023-02-10T03:16:05;101871.81;;;9.62;61.75
13013;BME280;22580;57.670;12.006;2023-02-10T03:18:32;101934.72;;;9.86;61.28
13013;BME280;22580;57.670;12.006;2023-02-10T03:21:01;101934.28;;;10.13;60.80
13013;BME280;22580;57.670;12.006;2023-02-10T03:23:28;101714.72;;;8.84;60.27
13013;BME280;22580;57.670;12.006;2023-02-10T03:25:57;101863.03;;;9.24;62.42
13013;BME280;22580;57.670;12.006;2023-02-10T03:28:24;101929.72;;;10.15;60.64
13013;BME280;22580;57.670;12.006;2023-02-10T03:30:51;101711.22;;;8.46;60.80
13013;BME280;22580;57.670;12.006;2023-02-10T03:33:19;101925.31;;;9.97;59.85
13013;BME280;22580;57.670;12.006;2023-02-10T03:35:49;101923.47;;;9.80;60.13
13013;BME280;22580;57.670;12.006;2023-02-10T03:38:19;101926.94;;;9.99;59.90
13013;BME280;22580;57.670;12.006;2023-02-10T03:40:49;101941.56;;;10.28;58.57
13013;BME280;22580;57.670;12.006;2023-02-10T03:43:16;101937.09;;;10.10;59.14
13013;BME280;22580;57.670;12.006;2023-02-10T03:45:44;101947.75;;;9.93;59.79
13013;BME280;22580;57.670;12.006;2023-02-10T03:48:11;101869.16;;;9.62;58.84
13013;BME280;22580;57.670;12.006;2023-02-10T03:50:38;101956.16;;;9.66;59.93
13013;BME280;22580;57.670;12.006;2023-02-10T03:53:05;101906.28;;;9.85;58.55
13013;BME280;22580;57.670;12.006;2023-02-10T03:55:34;101848.94;;;9.39;59.23
13013;BME280;22580;57.670;12.006;2023-02-10T03:58:01;101885.94;;;9.09;61.52
13013;BME280;22580;57.670;12.006;2023-02-10T04:00:29;101941.56;;;9.92;61.30
13013;BME280;22580;57.670;12.006;2023-02-10T04:02:56;101941.88;;;10.39;59.66
13013;BME280;22580;57.670;12.006;2023-02-10T04:05:24;101931.38;;;10.17;60.27
13013;BME280;22580;57.670;12.006;2023-02-10T04:07:51;101949.06;;;9.84;62.06
13013;BME280;22580;57.670;12.006;2023-02-10T04:10:18;101956.88;;;10.25;60.90
13013;BME280;22580;57.670;12.006;2023-02-10T04:12:47;101952.38;;;9.89;61.00
13013;BME280;22580;57.670;12.006;2023-02-10T04:15:14;101959.13;;;9.79;60.97
13013;BME280;22580;57.670;12.006;2023-02-10T04:17:41;101970.59;;;9.62;61.28
13013;BME280;22580;57.670;12.006;2023-02-10T04:20:08;101937.06;;;9.93;59.70
13013;BME280;22580;57.670;12.006;2023-02-10T04:22:35;101995.09;;;10.08;59.90
13013;BME280;22580;57.670;12.006;2023-02-10T04:25:02;101980.25;;;10.38;59.13
13013;BME280;22580;57.670;12.006;2023-02-10T04:27:29;102005.41;;;10.69;58.17
13013;BME280;22580;57.670;12.006;2023-02-10T04:29:58;101992.84;;;10.17;59.55
13013;BME280;22580;57.670;12.006;2023-02-10T04:32:25;101984.28;;;9.92;60.14
13013;BME280;22580;57.670;12.006;2023-02-10T04:34:52;101998.25;;;10.16;59.68
13013;BME280;22580;57.670;12.006;2023-02-10T04:37:19;102004.47;;;10.35;58.28
13013;BME280;22580;57.670;12.006;2023-02-10T04:39:49;101982.75;;;10.05;58.10
13013;BME280;22580;57.670;12.006;2023-02-10T04:42:16;102019.22;;;10.42;57.32
13013;BME280;22580;57.670;12.006;2023-02-10T04:44:43;102012.84;;;10.45;57.35
13013;BME280;22580;57.670;12.006;2023-02-10T04:47:12;102034.25;;;10.28;56.77
13013;BME280;22580;57.670;12.006;2023-02-10T04:49:38;102013.69;;;9.73;55.77
13013;BME280;22580;57.670;12.006;2023-02-10T04:52:05;102018.22;;;9.71;55.57
13013;BME280;22580;57.670;12.006;2023-02-10T04:54:32;102036.03;;;10.27;54.29
13013;BME280;22580;57.670;12.006;2023-02-10T04:56:59;101997.28;;;10.00;54.38
13013;BME280;22580;57.670;12.006;2023-02-10T04:59:26;102040.78;;;10.39;51.78
13013;BME280;22580;57.670;12.006;2023-02-10T05:01:53;102020.19;;;10.59;51.01
13013;BME280;22580;57.670;12.006;2023-02-10T05:04:21;102035.91;;;10.82;49.63
13013;BME280;22580;57.670;12.006;2023-02-10T05:06:48;102035.75;;;10.50;49.66
13013;BME280;22580;57.670;12.006;2023-02-10T05:09:15;102033.69;;;10.56;48.78
13013;BME280;22580;57.670;12.006;2023-02-10T05:11:42;102002.25;;;10.07;48.14
13013;BME280;22580;57.670;12.006;2023-02-10T05:14:09;102005.84;;;10.42;47.70
13013;BME280;22580;57.670;12.006;2023-02-10T05:16:36;102033.59;;;10.23;48.16
13013;BME280;22580;57.670;12.006;2023-02-10T05:19:03;102035.66;;;10.35;47.82
13013;BME280;22580;57.670;12.006;2023-02-10T05:21:31;102011.44;;;10.72;47.22
13013;BME280;22580;57.670;12.006;2023-02-10T05:23:58;102031.97;;;10.37;46.69
13013;BME280;22580;57.670;12.006;2023-02-10T05:26:25;102050.94;;;10.67;47.37
13013;BME280;22580;57.670;12.006;2023-02-10T05:28:52;102056.91;;;10.90;47.83
13013;BME280;22580;57.670;12.006;2023-02-10T05:31:19;102067.38;;;10.94;46.88
13013;BME280;22580;57.670;12.006;2023-02-10T05:33:46;102075.25;;;10.97;46.99
13013;BME280;22580;57.670;12.006;2023-02-10T05:36:13;102070.50;;;10.50;48.17
13013;BME280;22580;57.670;12.006;2023-02-10T05:38:42;102067.50;;;10.57;47.13
13013;BME280;22580;57.670;12.006;2023-02-10T05:41:29;101995.44;;;10.19;47.93
13013;BME280;22580;57.670;12.006;2023-02-10T05:43:57;102046.59;;;10.65;48.34
13013;BME280;22580;57.670;12.006;2023-02-10T05:46:24;102062.44;;;10.87;47.44
13013;BME280;22580;57.670;12.006;2023-02-10T05:48:51;102081.81;;;10.56;47.67
13013;BME280;22580;57.670;12.006;2023-02-10T05:51:18;102046.13;;;10.57;48.95
13013;BME280;22580;57.670;12.006;2023-02-10T05:53:46;102061.31;;;10.39;47.46
13013;BME280;22580;57.670;12.006;2023-02-10T05:56:13;102083.16;;;10.47;48.44
13013;BME280;22580;57.670;12.006;2023-02-10T05:58:41;102013.03;;;9.68;49.05
13013;BME280;22580;57.670;12.006;2023-02-10T06:01:09;102090.78;;;10.00;49.68
13013;BME280;22580;57.670;12.006;2023-02-10T06:03:37;102062.19;;;10.02;49.29
13013;BME280;22580;57.670;12.006;2023-02-10T06:06:04;102012.38;;;9.82;49.54
13013;BME280;22580;57.670;12.006;2023-02-10T06:08:31;102005.91;;;9.50;50.19
13013;BME280;22580;57.670;12.006;2023-02-10T06:11:00;101994.84;;;9.76;49.51
13013;BME280;22580;57.670;12.006;2023-02-10T06:13:29;102103.09;;;10.76;48.99
13013;BME280;22580;57.670;12.006;2023-02-10T06:15:56;102088.06;;;10.20;49.70
13013;BME280;22580;57.670;12.006;2023-02-10T06:18:23;102051.63;;;9.99;50.26
13013;BME280;22580;57.670;12.006;2023-02-10T06:20:50;101998.09;;;9.64;50.07
13013;BME280;22580;57.670;12.006;2023-02-10T06:23:17;102055.97;;;10.01;50.15
13013;BME280;22580;57.670;12.006;2023-02-10T06:25:45;101984.94;;;9.78;49.12
13013;BME280;22580;57.670;12.006;2023-02-10T06:28:13;102104.63;;;10.08;49.15
13013;BME280;22580;57.670;12.006;2023-02-10T06:30:41;102118.06;;;9.88;49.39
13013;BME280;22580;57.670;12.006;2023-02-10T06:33:08;102111.97;;;10.23;48.87
13013;BME280;22580;57.670;12.006;2023-02-10T06:35:35;102107.75;;;10.36;48.70
13013;BME280;22580;57.670;12.006;2023-02-10T06:38:02;102115.41;;;10.61;48.44
13013;BME280;22580;57.670;12.006;2023-02-10T06:40:29;102137.69;;;10.62;48.57
13013;BME280;22580;57.670;12.006;2023-02-10T06:42:56;102135.75;;;10.46;48.70
13013;BME280;22580;57.670;12.006;2023-02-10T06:45:24;102134.94;;;10.63;49.73
13013;BME280;22580;57.670;12.006;2023-02-10T06:47:51;102009.94;;;9.40;50.48
13013;BME280;22580;57.670;12.006;2023-02-10T06:50:18;102141.81;;;10.50;50.43
13013;BME280;22580;57.670;12.006;2023-02-10T06:52:45;102154.72;;;10.23;51.05
13013;BME280;22580;57.670;12.006;2023-02-10T06:55:13;102133.03;;;10.10;51.91
13013;BME280;22580;57.670;12.006;2023-02-10T06:57:40;102159.28;;;10.40;51.61
13013;BME280;22580;57.670;12.006;2023-02-10T07:00:09;102133.75;;;10.14;52.23
13013;BME280;22580;57.670;12.006;2023-02-10T07:02:39;102132.25;;;10.27;52.66
13013;BME280;22580;57.670;12.006;2023-02-10T07:05:09;102172.22;;;10.66;51.64
13013;BME280;22580;57.670;12.006;2023-02-10T07:07:37;101998.38;;;9.58;55.57
13013;BME280;22580;57.670;12.006;2023-02-10T07:10:05;102168.81;;;10.63;54.22
13013;BME280;22580;57.670;12.006;2023-02-10T07:12:32;102119.91;;;10.25;53.09
13013;BME280;22580;57.670;12.006;2023-02-10T07:14:59;102123.69;;;10.19;53.72
13013;BME280;22580;57.670;12.006;2023-02-10T07:17:26;102043.03;;;9.36;54.37
13013;BME280;22580;57.670;12.006;2023-02-10T07:19:54;102135.41;;;9.59;53.56
13013;BME280;22580;57.670;12.006;2023-02-10T07:22:21;102159.09;;;10.05;53.35
13013;BME280;22580;57.670;12.006;2023-02-10T07:24:48;101959.47;;;8.96;52.64
13013;BME280;22580;57.670;12.006;2023-02-10T07:27:15;102130.47;;;9.89;52.39
13013;BME280;22580;57.670;12.006;2023-02-10T07:29:42;102208.44;;;10.55;52.77
13013;BME280;22580;57.670;12.006;2023-02-10T07:32:09;102195.06;;;10.55;52.38
13013;BME280;22580;57.670;12.006;2023-02-10T07:34:36;102197.88;;;10.51;51.72
13013;BME280;22580;57.670;12.006;2023-02-10T07:37:07;102200.84;;;10.64;50.83
13013;BME280;22580;57.670;12.006;2023-02-10T07:39:34;102189.28;;;10.64;50.70
13013;BME280;22580;57.670;12.006;2023-02-10T07:42:02;102202.13;;;10.74;50.09
13013;BME280;22580;57.670;12.006;2023-02-10T07:44:29;102173.22;;;10.64;50.36
13013;BME280;22580;57.670;12.006;2023-02-10T07:46:57;102195.63;;;10.61;50.22
13013;BME280;22580;57.670;12.006;2023-02-10T07:49:24;102197.34;;;10.81;50.82
13013;BME280;22580;57.670;12.006;2023-02-10T07:51:54;102205.03;;;10.51;50.98
13013;BME280;22580;57.670;12.006;2023-02-10T07:54:22;102199.13;;;10.63;51.15
13013;BME280;22580;57.670;12.006;2023-02-10T07:56:49;102199.84;;;10.67;51.78
13013;BME280;22580;57.670;12.006;2023-02-10T07:59:17;102147.38;;;10.08;51.64
13013;BME280;22580;57.670;12.006;2023-02-10T08:01:44;102124.78;;;9.96;51.44
13013;BME280;22580;57.670;12.006;2023-02-10T08:04:12;102201.09;;;10.22;51.09
13013;BME280;22580;57.670;12.006;2023-02-10T08:06:39;102192.53;;;10.70;50.72
13013;BME280;22580;57.670;12.006;2023-02-10T08:09:06;102195.00;;;10.18;51.34
13013;BME280;22580;57.670;12.006;2023-02-10T08:11:35;102196.00;;;10.16;51.70
13013;BME280;22580;57.670;12.006;2023-02-10T08:14:02;102200.50;;;10.53;51.42
13013;BME280;22580;57.670;12.006;2023-02-10T08:16:30;102213.09;;;10.32;50.32
13013;BME280;22580;57.670;12.006;2023-02-10T08:18:57;102111.16;;;10.21;50.06
13013;BME280;22580;57.670;12.006;2023-02-10T08:21:23;102204.97;;;11.07;49.56
13013;BME280;22580;57.670;12.006;2023-02-10T08:23:51;102207.22;;;10.98;48.92
13013;BME280;22580;57.670;12.006;2023-02-10T08:26:21;102236.75;;;10.96;48.88
13013;BME280;22580;57.670;12.006;2023-02-10T08:28:49;102187.03;;;11.09;48.26
13013;BME280;22580;57.670;12.006;2023-02-10T08:31:17;102240.41;;;11.64;47.75
13013;BME280;22580;57.670;12.006;2023-02-10T08:33:44;102226.56;;;11.22;48.37
13013;BME280;22580;57.670;12.006;2023-02-10T08:36:12;102134.88;;;10.46;48.49
13013;BME280;22580;57.670;12.006;2023-02-10T08:38:39;102264.38;;;10.97;49.17
13013;BME280;22580;57.670;12.006;2023-02-10T08:41:06;102169.66;;;10.82;48.00
13013;BME280;22580;57.670;12.006;2023-02-10T08:43:33;102270.72;;;11.30;47.84
13013;BME280;22580;57.670;12.006;2023-02-10T08:46:01;102245.28;;;11.22;47.83
13013;BME280;22580;57.670;12.006;2023-02-10T08:48:32;102236.16;;;10.90;47.95
13013;BME280;22580;57.670;12.006;2023-02-10T08:50:59;102265.00;;;11.02;48.16
13013;BME280;22580;57.670;12.006;2023-02-10T08:53:27;102263.88;;;10.89;47.90
13013;BME280;22580;57.670;12.006;2023-02-10T08:55:56;102280.63;;;10.92;48.06
13013;BME280;22580;57.670;12.006;2023-02-10T08:58:23;102252.16;;;10.72;48.48
13013;BME280;22580;57.670;12.006;2023-02-10T09:00:50;102179.69;;;10.41;48.67
13013;BME280;22580;57.670;12.006;2023-02-10T09:03:19;102228.16;;;10.52;48.31
13013;BME280;22580;57.670;12.006;2023-02-10T09:05:46;102243.84;;;10.78;48.60
13013;BME280;22580;57.670;12.006;2023-02-10T09:08:14;102185.16;;;10.75;47.79
13013;BME280;22580;57.670;12.006;2023-02-10T09:10:41;102138.25;;;10.68;47.61
13013;BME280;22580;57.670;12.006;2023-02-10T09:13:08;102201.94;;;10.96;47.53
13013;BME280;22580;57.670;12.006;2023-02-10T09:15:37;102221.97;;;11.06;47.41
13013;BME280;22580;57.670;12.006;2023-02-10T09:18:05;102240.09;;;10.82;47.30
13013;BME280;22580;57.670;12.006;2023-02-10T09:20:35;102236.41;;;10.47;48.59
13013;BME280;22580;57.670;12.006;2023-02-10T09:23:02;102236.88;;;11.64;46.47
13013;BME280;22580;57.670;12.006;2023-02-10T09:25:29;102203.63;;;11.50;45.13
13013;BME280;22580;57.670;12.006;2023-02-10T09:27:57;102232.53;;;11.44;45.43
13013;BME280;22580;57.670;12.006;2023-02-10T09:30:24;102164.66;;;10.93;45.25
13013;BME280;22580;57.670;12.006;2023-02-10T09:32:51;102135.69;;;10.48;45.74
13013;BME280;22580;57.670;12.006;2023-02-10T09:35:18;102243.56;;;11.38;45.29
13013;BME280;22580;57.670;12.006;2023-02-10T09:37:46;102142.06;;;10.99;45.22
13013;BME280;22580;57.670;12.006;2023-02-10T09:40:16;102209.38;;;11.60;45.24
13013;BME280;22580;57.670;12.006;2023-02-10T09:42:58;102214.66;;;11.44;44.66
13013;BME280;22580;57.670;12.006;2023-02-10T09:45:33;102176.56;;;11.22;44.56
13013;BME280;22580;57.670;12.006;2023-02-10T09:48:09;102215.38;;;11.48;44.70
13013;BME280;22580;57.670;12.006;2023-02-10T09:50:51;102034.47;;;10.23;44.97
13013;BME280;22580;57.670;12.006;2023-02-10T09:53:25;102180.50;;;10.79;45.37
13013;BME280;22580;57.670;12.006;2023-02-10T09:55:55;102109.81;;;10.48;45.95
13013;BME280;22580;57.670;12.006;2023-02-10T09:58:30;102210.16;;;11.28;45.96
13013;BME280;22580;57.670;12.006;2023-02-10T10:01:02;102195.50;;;11.52;46.11
13013;BME280;22580;57.670;12.006;2023-02-10T10:03:36;102220.25;;;11.57;46.07
13013;BME280;22580;57.670;12.006;2023-02-10T10:06:13;102262.00;;;11.61;45.75
13013;BME280;22580;57.670;12.006;2023-02-10T10:08:50;102237.59;;;11.85;46.12
13013;BME280;22580;57.670;12.006;2023-02-10T10:11:25;102187.72;;;11.30;47.06
13013;BME280;22580;57.670;12.006;2023-02-10T10:13:54;102229.09;;;11.25;47.72
13013;BME280;22580;57.670;12.006;2023-02-10T10:16:30;102268.41;;;12.26;46.94
13013;BME280;22580;57.670;12.006;2023-02-10T10:19:12;102251.16;;;12.14;46.88
13013;BME280;22580;57.670;12.006;2023-02-10T10:21:52;102228.94;;;11.79;47.04
13013;BME280;22580;57.670;12.006;2023-02-10T10:24:42;102260.69;;;12.20;46.57
13013;BME280;22580;57.670;12.006;2023-02-10T10:27:20;102154.31;;;12.05;46.29
13013;BME280;22580;57.670;12.006;2023-02-10T10:29:52;102266.34;;;12.31;46.52
13013;BME280;22580;57.670;12.006;2023-02-10T10:32:31;102253.41;;;12.06;47.14
13013;BME280;22580;57.670;12.006;2023-02-10T10:35:05;102270.66;;;12.34;46.87
13013;BME280;22580;57.670;12.006;2023-02-10T10:37:38;102269.75;;;12.51;47.01
13013;BME280;22580;57.670;12.006;2023-02-10T10:40:08;102229.69;;;12.47;46.84
13013;BME280;22580;57.670;12.006;2023-02-10T10:42:42;102186.78;;;11.48;48.70
13013;BME280;22580;57.670;12.006;2023-02-10T10:45:14;102266.06;;;11.87;49.48
13013;BME280;22580;57.670;12.006;2023-02-10T10:47:45;102282.88;;;12.39;48.87
13013;BME280;22580;57.670;12.006;2023-02-10T10:50:15;102263.84;;;11.78;49.60
13013;BME280;22580;57.670;12.006;2023-02-10T10:52:44;102231.84;;;11.92;49.74
13013;BME280;22580;57.670;12.006;2023-02-10T10:55:24;102162.00;;;11.95;48.96
13013;BME280;22580;57.670;12.006;2023-02-10T10:57:53;102248.69;;;12.27;49.44
13013;BME280;22580;57.670;12.006;2023-02-10T11:00:23;102254.28;;;12.56;49.20
13013;BME280;22580;57.670;12.006;2023-02-10T11:02:53;102266.13;;;12.52;48.49
13013;BME280;22580;57.670;12.006;2023-02-10T11:05:21;102267.31;;;11.97;49.29
13013;BME280;22580;57.670;12.006;2023-02-10T11:07:49;102245.72;;;11.83;49.68
13013;BME280;22580;57.670;12.006;2023-02-10T11:10:26;102256.19;;;12.05;48.30
13013;BME280;22580;57.670;12.006;2023-02-10T11:12:54;102261.78;;;12.49;48.05
13013;BME280;22580;57.670;12.006;2023-02-10T11:15:31;102162.69;;;11.99;47.95
13013;BME280;22580;57.670;12.006;2023-02-10T11:18:07;102238.13;;;12.08;49.09
13013;BME280;22580;57.670;12.006;2023-02-10T11:20:40;102177.34;;;12.09;49.05
13013;BME280;22580;57.670;12.006;2023-02-10T11:23:17;102153.75;;;11.65;50.00
13013;BME280;22580;57.670;12.006;2023-02-10T11:25:56;102165.81;;;12.07;49.42
13013;BME280;22580;57.670;12.006;2023-02-10T11:28:25;102211.47;;;12.21;49.91
13013;BME280;22580;57.670;12.006;2023-02-10T11:30:55;102209.44;;;12.42;50.50
13013;BME280;22580;57.670;12.006;2023-02-10T11:33:26;102190.41;;;12.31;50.58
13013;BME280;22580;57.670;12.006;2023-02-10T11:35:58;102204.34;;;12.53;50.29
13013;BME280;22580;57.670;12.006;2023-02-10T11:38:26;102208.84;;;12.68;50.19
13013;BME280;22580;57.670;12.006;2023-02-10T11:40:55;102205.38;;;12.98;49.85
13013;BME280;22580;57.670;12.006;2023-02-10T11:43:26;102191.44;;;12.60;50.25
13013;BME280;22580;57.670;12.006;2023-02-10T11:45:56;102218.28;;;11.95;52.58
13013;BME280;22580;57.670;12.006;2023-02-10T11:48:25;102208.13;;;11.85;54.70
13013;BME280;22580;57.670;12.006;2023-02-10T11:51:04;102170.75;;;12.30;53.50
13013;BME280;22580;57.670;12.006;2023-02-10T11:53:33;102206.34;;;12.81;52.99
13013;BME280;22580;57.670;12.006;2023-02-10T11:56:05;102155.03;;;12.08;54.84
13013;BME280;22580;57.670;12.006;2023-02-10T11:58:45;102138.31;;;12.35;54.78
13013;BME280;22580;57.670;12.006;2023-02-10T12:01:44;102184.34;;;12.74;54.92
13013;BME280;22580;57.670;12.006;2023-02-10T12:04:55;102200.94;;;12.97;55.22
13013;BME280;22580;57.670;12.006;2023-02-10T12:07:37;102161.69;;;12.64;54.97
13013;BME280;22580;57.670;12.006;2023-02-10T12:10:15;102179.75;;;12.76;55.52
13013;BME280;22580;57.670;12.006;2023-02-10T12:12:52;102193.69;;;12.99;55.22
13013;BME280;22580;57.670;12.006;2023-02-10T12:15:30;102129.56;;;12.63;55.26
13013;BME280;22580;57.670;12.006;2023-02-10T12:18:12;102196.63;;;12.78;56.34
13013;BME280;22580;57.670;12.006;2023-02-10T12:20:56;102194.53;;;12.21;58.15
13013;BME280;22580;57.670;12.006;2023-02-10T12:23:38;102129.50;;;12.33;57.39
13013;BME280;22580;57.670;12.006;2023-02-10T12:26:15;102171.47;;;12.65;57.51
13013;BME280;22580;57.670;12.006;2023-02-10T12:28:54;102171.28;;;12.84;57.45
13013;BME280;22580;57.670;12.006;2023-02-10T12:31:34;102117.88;;;12.79;57.72
13013;BME280;22580;57.670;12.006;2023-02-10T12:34:18;102116.94;;;12.18;60.93
13013;BME280;22580;57.670;12.006;2023-02-10T12:36:52;102146.88;;;12.41;61.15
13013;BME280;22580;57.670;12.006;2023-02-10T12:39:23;102175.84;;;12.98;59.51
13013;BME280;22580;57.670;12.006;2023-02-10T12:41:58;102149.56;;;12.57;61.06
13013;BME280;22580;57.670;12.006;2023-02-10T12:44:39;102152.59;;;12.67;59.04
13013;BME280;22580;57.670;12.006;2023-02-10T12:47:20;102160.44;;;12.86;58.64
13013;BME280;22580;57.670;12.006;2023-02-10T12:50:01;102153.91;;;12.60;59.84
13013;BME280;22580;57.670;12.006;2023-02-10T12:52:32;102164.25;;;12.82;60.65
13013;BME280;22580;57.670;12.006;2023-02-10T12:55:04;102125.16;;;12.62;60.09
13013;BME280;22580;57.670;12.006;2023-02-10T12:57:39;102148.69;;;12.72;58.15
13013;BME280;22580;57.670;12.006;2023-02-10T13:00:14;102126.78;;;12.80;57.99
13013;BME280;22580;57.670;12.006;2023-02-10T13:02:46;102137.88;;;11.95;60.63
13013;BME280;22580;57.670;12.006;2023-02-10T13:05:18;102132.25;;;12.63;59.90